< < Back
Terminal Aerodrome Forecast


Current Version              Previous Versions:   1  2  3  4  5  6  7  8  9  

Terminal Aerodrome Forecast

612
FTUS44 KBMX 270500
TAFANB
TAF
KANB 270532Z 2706/2806 VRB03KT P6SM SCT025 BKN070
     FM271500 32010G18KT P6SM BKN030
     FM280200 33004KT P6SM SKC=



Latest METAR

174
SAUS70 KWBC 271400
MTRANB
METAR KANB 271353Z AUTO 20008KT 10SM CLR 02/00 A2996 RMK AO2 SLP156
T00220000


USA.gov is the U.S. government's official web portal to all federal, state and local government web resources and services.